createdAt,value
2019-03-23T00:00:24.346Z,35.65
2019-03-23T00:00:55.547Z,35.73
2019-03-23T00:01:26.851Z,36.10
2019-03-23T00:01:58.077Z,35.98
2019-03-23T00:02:29.302Z,35.60
2019-03-23T00:03:00.510Z,35.40
2019-03-23T00:03:31.715Z,35.83
2019-03-23T00:04:02.940Z,35.48
2019-03-23T00:04:34.176Z,35.40
2019-03-23T00:05:05.403Z,35.33
2019-03-23T00:05:36.621Z,34.03
2019-03-23T00:06:07.877Z,34.35
2019-03-23T00:06:39.093Z,33.55
2019-03-23T00:07:10.299Z,33.45
2019-03-23T00:07:41.508Z,34.80
2019-03-23T00:08:12.722Z,33.10
2019-03-23T00:08:43.934Z,32.15
2019-03-23T00:09:15.165Z,32.23
2019-03-23T00:09:46.373Z,34.05
2019-03-23T00:10:17.577Z,32.78
2019-03-23T00:10:48.818Z,31.12
2019-03-23T00:11:20.065Z,32.53
2019-03-23T00:11:51.280Z,31.77
2019-03-23T00:12:22.485Z,31.45
2019-03-23T00:12:53.692Z,33.20
2019-03-23T00:13:24.909Z,32.45
2019-03-23T00:13:56.097Z,30.85
2019-03-23T00:14:27.311Z,31.77
2019-03-23T00:14:58.513Z,30.60
2019-03-23T00:15:30.657Z,30.48
2019-03-23T00:16:01.879Z,29.90
2019-03-23T00:16:33.131Z,29.72
2019-03-23T00:17:04.378Z,30.45
2019-03-23T00:17:35.651Z,30.90
2019-03-23T00:18:06.863Z,30.02
2019-03-23T00:18:38.079Z,29.87
2019-03-23T00:19:09.294Z,30.75
2019-03-23T00:19:40.515Z,30.92
2019-03-23T00:20:11.878Z,31.50
2019-03-23T00:20:43.085Z,30.68
2019-03-23T00:21:14.341Z,31.15
2019-03-23T00:21:45.613Z,31.82
2019-03-23T00:22:16.827Z,30.23
2019-03-23T00:22:48.033Z,31.48
2019-03-23T00:23:19.243Z,31.35
2019-03-23T00:23:50.455Z,32.35
2019-03-23T00:24:21.673Z,30.15
2019-03-23T00:24:52.882Z,30.57
2019-03-23T00:25:24.071Z,31.07
2019-03-23T00:25:55.275Z,32.28
2019-03-23T00:26:26.471Z,31.50
2019-03-23T00:26:57.713Z,31.40
2019-03-23T00:27:28.918Z,32.50
2019-03-23T00:28:00.151Z,32.28
2019-03-23T00:28:31.366Z,32.75
2019-03-23T00:29:02.575Z,32.30
2019-03-23T00:29:33.779Z,33.73
2019-03-23T00:30:05.042Z,33.53
2019-03-23T00:30:36.249Z,32.88
2019-03-23T00:31:07.458Z,33.20
2019-03-23T00:31:38.672Z,31.95
2019-03-23T00:32:09.887Z,32.50
2019-03-23T00:32:41.132Z,32.33
2019-03-23T00:33:12.353Z,32.17
2019-03-23T00:33:43.542Z,31.70
2019-03-23T00:34:14.749Z,33.13
2019-03-23T00:34:46.000Z,31.93
2019-03-23T00:35:17.220Z,32.03
2019-03-23T00:35:48.429Z,32.53
2019-03-23T00:36:19.684Z,31.45
2019-03-23T00:36:50.892Z,32.40
2019-03-23T00:37:22.090Z,32.42
2019-03-23T00:37:53.308Z,31.73
2019-03-23T00:38:24.565Z,32.55
2019-03-23T00:38:55.770Z,32.85
2019-03-23T00:39:27.023Z,31.35
2019-03-23T00:39:58.247Z,32.55
2019-03-23T00:40:29.452Z,31.87
2019-03-23T00:41:00.722Z,31.42
2019-03-23T00:41:31.929Z,31.82
2019-03-23T00:42:03.135Z,32.95
2019-03-23T00:42:34.337Z,32.25
2019-03-23T00:43:05.554Z,33.00
2019-03-23T00:43:36.757Z,32.63
2019-03-23T00:44:07.960Z,33.33
2019-03-23T00:44:39.168Z,32.40
2019-03-23T00:45:10.374Z,34.05
2019-03-23T00:45:41.613Z,32.78
2019-03-23T00:46:12.866Z,31.82
2019-03-23T00:46:44.106Z,32.48
2019-03-23T00:47:15.310Z,31.05
2019-03-23T00:47:46.510Z,31.77
2019-03-23T00:48:17.715Z,30.35
2019-03-23T00:48:48.953Z,32.13
2019-03-23T00:49:20.166Z,32.78
2019-03-23T00:49:51.372Z,34.23
2019-03-23T00:50:22.570Z,31.87
2019-03-23T00:50:53.772Z,33.08
2019-03-23T00:51:25.038Z,33.08
2019-03-23T00:51:56.246Z,30.70
2019-03-23T00:52:27.457Z,30.45
2019-03-23T00:52:58.665Z,30.70
2019-03-23T00:53:29.868Z,30.95
2019-03-23T00:54:01.088Z,31.15
2019-03-23T00:54:32.286Z,32.67
2019-03-23T00:55:03.488Z,32.30
2019-03-23T00:55:34.701Z,29.85
2019-03-23T00:56:05.934Z,33.88
2019-03-23T00:56:37.184Z,31.55
2019-03-23T00:57:08.381Z,32.25
2019-03-23T00:57:39.581Z,32.50
2019-03-23T00:58:10.791Z,31.40
2019-03-23T00:58:42.119Z,29.87
2019-03-23T00:59:13.380Z,31.20
2019-03-23T00:59:44.580Z,32.15
2019-03-23T01:00:15.785Z,31.87
2019-03-23T01:00:46.990Z,33.70
2019-03-23T01:01:18.197Z,33.18
2019-03-23T01:01:49.406Z,32.50
2019-03-23T01:02:20.614Z,32.53
2019-03-23T01:02:51.812Z,33.42
2019-03-23T01:03:23.012Z,33.30
2019-03-23T01:03:54.238Z,32.98
2019-03-23T01:04:25.499Z,33.05
2019-03-23T01:04:56.689Z,31.42
2019-03-23T01:05:27.936Z,31.85
2019-03-23T01:05:59.136Z,33.30
2019-03-23T01:06:30.339Z,33.25
2019-03-23T01:07:01.535Z,32.88
2019-03-23T01:07:32.751Z,32.53
2019-03-23T01:08:03.970Z,32.80
2019-03-23T01:08:35.168Z,33.55
2019-03-23T01:09:06.380Z,31.73
2019-03-23T01:09:37.642Z,32.38
2019-03-23T01:10:08.854Z,33.60
2019-03-23T01:10:40.055Z,31.60
2019-03-23T01:11:11.257Z,32.93
2019-03-23T01:11:42.460Z,32.78
2019-03-23T01:12:13.655Z,32.65
2019-03-23T01:12:44.854Z,32.67
2019-03-23T01:13:16.050Z,32.00
2019-03-23T01:13:47.253Z,34.38
2019-03-23T01:14:18.593Z,34.40
2019-03-23T01:14:49.804Z,33.48
2019-03-23T01:15:21.005Z,32.83
2019-03-23T01:15:52.235Z,34.58
2019-03-23T01:16:23.421Z,34.25
2019-03-23T01:16:54.630Z,34.45
2019-03-23T01:17:25.833Z,34.30
2019-03-23T01:17:57.043Z,34.80
2019-03-23T01:18:28.241Z,32.73
2019-03-23T01:18:59.506Z,32.28
2019-03-23T01:19:30.711Z,34.55
2019-03-23T01:20:01.921Z,33.55
2019-03-23T01:20:33.117Z,33.28
2019-03-23T01:21:04.365Z,34.33
2019-03-23T01:21:35.612Z,32.33
2019-03-23T01:22:06.825Z,32.98
2019-03-23T01:22:38.035Z,31.33
2019-03-23T01:23:09.239Z,33.15
2019-03-23T01:23:40.456Z,32.33
2019-03-23T01:24:11.673Z,29.27
2019-03-23T01:24:42.879Z,29.25
2019-03-23T01:25:14.128Z,31.90
2019-03-23T01:25:45.345Z,31.52
2019-03-23T01:26:16.608Z,28.87
2019-03-23T01:26:47.840Z,31.27
2019-03-23T01:27:19.049Z,30.00
2019-03-23T01:27:50.259Z,30.68
2019-03-23T01:28:21.467Z,30.02
2019-03-23T01:28:52.677Z,31.12
2019-03-23T01:29:23.887Z,30.43
2019-03-23T01:29:55.079Z,29.87
2019-03-23T01:30:26.330Z,30.43
2019-03-23T01:30:57.539Z,31.02
2019-03-23T01:31:28.748Z,29.85
2019-03-23T01:31:59.959Z,31.55
2019-03-23T01:32:31.173Z,32.00
2019-03-23T01:33:02.386Z,31.12
2019-03-23T01:33:33.588Z,28.30
2019-03-23T01:34:04.798Z,31.27
2019-03-23T01:34:36.005Z,29.95
2019-03-23T01:35:07.207Z,30.20
2019-03-23T01:35:38.286Z,30.08
2019-03-23T01:36:09.494Z,29.92
2019-03-23T01:36:40.710Z,30.45
2019-03-23T01:37:11.928Z,31.42
2019-03-23T01:37:43.135Z,30.90
2019-03-23T01:38:14.333Z,31.60
2019-03-23T01:38:45.538Z,31.68
2019-03-23T01:39:16.758Z,32.40
2019-03-23T01:39:47.983Z,30.52
2019-03-23T01:40:19.192Z,32.33
2019-03-23T01:40:50.452Z,32.00
2019-03-23T01:41:21.655Z,29.75
2019-03-23T01:41:52.883Z,30.55
2019-03-23T01:42:24.085Z,31.55
2019-03-23T01:42:55.305Z,28.90
2019-03-23T01:43:26.511Z,32.13
2019-03-23T01:43:57.710Z,29.30
2019-03-23T01:44:28.917Z,31.40
2019-03-23T01:45:00.316Z,31.30
2019-03-23T01:45:31.562Z,30.50
2019-03-23T01:46:02.810Z,31.07
2019-03-23T01:46:34.060Z,31.80
2019-03-23T01:47:05.266Z,31.35
2019-03-23T01:47:36.503Z,30.77
2019-03-23T01:48:07.722Z,31.97
2019-03-23T01:48:39.327Z,31.82
2019-03-23T01:49:10.574Z,31.05
2019-03-23T01:49:41.760Z,32.05
2019-03-23T01:50:12.971Z,31.02
2019-03-23T01:50:44.166Z,30.60
2019-03-23T01:51:15.365Z,31.75
2019-03-23T01:51:46.612Z,32.25
2019-03-23T01:52:17.817Z,30.95
2019-03-23T01:52:49.037Z,30.80
2019-03-23T01:53:20.244Z,30.57
2019-03-23T01:53:51.455Z,31.45
2019-03-23T01:54:22.651Z,32.10
2019-03-23T01:54:53.844Z,32.20
2019-03-23T01:55:25.042Z,31.20
2019-03-23T01:55:56.254Z,32.38
2019-03-23T01:56:27.519Z,31.37
2019-03-23T01:56:58.723Z,30.95
2019-03-23T01:57:29.936Z,31.50
2019-03-23T01:58:01.160Z,32.70
2019-03-23T01:58:32.383Z,31.70
2019-03-23T01:59:03.594Z,32.78
2019-03-23T01:59:34.834Z,32.25
2019-03-23T02:00:06.074Z,32.13
2019-03-23T02:00:37.284Z,31.75
2019-03-23T02:01:08.499Z,31.97
2019-03-23T02:01:39.700Z,31.82
2019-03-23T02:02:10.894Z,32.73
2019-03-23T02:02:42.113Z,31.07
2019-03-23T02:03:13.316Z,30.20
2019-03-23T02:03:44.523Z,31.95
2019-03-23T02:04:15.739Z,31.30
2019-03-23T02:04:47.027Z,30.85
2019-03-23T02:05:18.228Z,29.82
2019-03-23T02:05:49.419Z,31.20
2019-03-23T02:06:20.666Z,30.60
2019-03-23T02:06:51.878Z,32.45
2019-03-23T02:07:23.087Z,31.52
2019-03-23T02:07:54.296Z,30.50
2019-03-23T02:08:25.509Z,30.10
2019-03-23T02:08:56.708Z,29.55
2019-03-23T02:09:27.906Z,30.27
2019-03-23T02:09:59.140Z,30.92
2019-03-23T02:10:30.399Z,30.32
2019-03-23T02:11:01.601Z,29.67
2019-03-23T02:11:32.863Z,31.00
2019-03-23T02:12:04.079Z,29.18
2019-03-23T02:12:35.304Z,29.05
2019-03-23T02:13:06.515Z,29.25
2019-03-23T02:13:37.724Z,28.85
2019-03-23T02:14:08.987Z,29.18
2019-03-23T02:14:40.165Z,29.12
2019-03-23T02:15:11.386Z,28.83
2019-03-23T02:15:42.629Z,28.52
2019-03-23T02:16:13.835Z,27.62
2019-03-23T02:16:45.039Z,28.38
2019-03-23T02:17:16.278Z,29.52
2019-03-23T02:17:47.477Z,29.07
2019-03-23T02:18:18.688Z,29.05
2019-03-23T02:18:49.890Z,30.50
2019-03-23T02:19:21.096Z,30.45
2019-03-23T02:19:52.344Z,31.10
2019-03-23T02:20:23.535Z,30.82
2019-03-23T02:20:54.771Z,29.37
2019-03-23T02:21:25.973Z,30.45
2019-03-23T02:21:57.175Z,30.45
2019-03-23T02:22:28.445Z,30.12
2019-03-23T02:22:59.663Z,30.00
2019-03-23T02:23:30.871Z,30.32
2019-03-23T02:24:02.074Z,30.40
2019-03-23T02:24:33.274Z,31.62
2019-03-23T02:25:04.493Z,31.60
2019-03-23T02:25:35.696Z,30.88
2019-03-23T02:26:06.900Z,31.55
2019-03-23T02:26:38.139Z,31.97
2019-03-23T02:27:09.307Z,32.42
2019-03-23T02:27:40.551Z,31.10
2019-03-23T02:28:11.752Z,31.12
2019-03-23T02:28:42.970Z,31.27
2019-03-23T02:29:14.226Z,29.80
2019-03-23T02:29:45.415Z,30.90
2019-03-23T02:30:16.640Z,31.90
2019-03-23T02:30:47.843Z,32.50
2019-03-23T02:31:19.041Z,31.15
2019-03-23T02:31:50.244Z,32.00
2019-03-23T02:32:21.473Z,30.95
2019-03-23T02:32:52.682Z,30.37
2019-03-23T02:33:23.894Z,31.50
2019-03-23T02:33:55.097Z,31.85
2019-03-23T02:34:26.333Z,31.62
2019-03-23T02:34:57.534Z,30.90
2019-03-23T02:35:28.762Z,32.73
2019-03-23T02:35:59.986Z,30.62
2019-03-23T02:36:31.204Z,31.85
2019-03-23T02:37:02.406Z,32.03
2019-03-23T02:37:33.589Z,32.08
2019-03-23T02:38:04.798Z,30.32
2019-03-23T02:38:36.005Z,32.42
2019-03-23T02:39:07.248Z,32.65
2019-03-23T02:39:38.466Z,32.80
2019-03-23T02:40:09.680Z,30.37
2019-03-23T02:40:40.889Z,31.97
2019-03-23T02:41:12.094Z,32.70
2019-03-23T02:41:43.338Z,31.73
2019-03-23T02:42:14.547Z,33.50
2019-03-23T02:42:45.769Z,32.70
2019-03-23T02:43:16.976Z,32.30
2019-03-23T02:43:48.173Z,33.70
2019-03-23T02:44:19.396Z,31.57
2019-03-23T02:44:50.612Z,30.90
2019-03-23T02:45:21.899Z,31.00
2019-03-23T02:45:54.203Z,30.20
2019-03-23T02:46:25.418Z,29.87
2019-03-23T02:46:56.640Z,30.85
2019-03-23T02:47:27.850Z,30.72
2019-03-23T02:47:59.085Z,30.30
2019-03-23T02:48:30.336Z,30.45
2019-03-23T02:49:01.542Z,31.15
2019-03-23T02:49:32.741Z,31.50
2019-03-23T02:50:03.955Z,31.07
2019-03-23T02:50:35.159Z,31.68
2019-03-23T02:51:06.363Z,32.60
2019-03-23T02:51:39.748Z,32.00
2019-03-23T02:52:10.501Z,32.20
2019-03-23T02:52:41.708Z,32.05
2019-03-23T02:53:12.904Z,31.42
2019-03-23T02:53:44.163Z,31.30
2019-03-23T02:54:15.394Z,30.70
2019-03-23T02:54:46.663Z,31.45
2019-03-23T02:55:17.865Z,30.20
2019-03-23T02:55:49.057Z,31.07
2019-03-23T02:56:20.260Z,29.90
2019-03-23T02:56:51.470Z,30.37
2019-03-23T02:57:22.684Z,30.70
2019-03-23T02:57:53.946Z,32.35
2019-03-23T02:58:25.157Z,31.40
2019-03-23T02:58:56.347Z,31.42
2019-03-23T02:59:27.586Z,32.40
2019-03-23T02:59:58.795Z,32.63
2019-03-23T03:00:29.992Z,33.05
2019-03-23T03:01:01.219Z,33.42
2019-03-23T03:01:32.421Z,31.10
2019-03-23T03:02:03.669Z,32.40
2019-03-23T03:02:34.898Z,32.67
2019-03-23T03:03:06.114Z,32.85
2019-03-23T03:03:37.315Z,33.20
2019-03-23T03:04:08.598Z,33.10
2019-03-23T03:04:39.804Z,32.88
2019-03-23T03:05:11.011Z,32.73
2019-03-23T03:05:42.246Z,32.50
2019-03-23T03:06:13.453Z,33.08
2019-03-23T03:06:44.724Z,32.60
2019-03-23T03:07:15.934Z,33.40
2019-03-23T03:07:47.154Z,32.75
2019-03-23T03:08:18.349Z,32.28
2019-03-23T03:08:49.559Z,31.62
2019-03-23T03:09:20.781Z,32.60
2019-03-23T03:09:52.047Z,32.23
2019-03-23T03:10:23.270Z,32.53
2019-03-23T03:10:54.466Z,33.15
2019-03-23T03:11:25.662Z,32.20
2019-03-23T03:11:56.899Z,32.15
2019-03-23T03:12:28.067Z,30.88
2019-03-23T03:12:59.261Z,30.77
2019-03-23T03:13:30.498Z,31.62
2019-03-23T03:14:01.686Z,31.35
2019-03-23T03:14:32.899Z,32.78
2019-03-23T03:15:04.135Z,30.25
2019-03-23T03:15:35.359Z,30.30
2019-03-23T03:16:06.552Z,29.92
2019-03-23T03:16:37.837Z,31.70
2019-03-23T03:17:09.051Z,31.82
2019-03-23T03:17:40.274Z,31.90
2019-03-23T03:18:11.481Z,30.75
2019-03-23T03:18:42.698Z,31.07
2019-03-23T03:19:13.938Z,29.98
2019-03-23T03:19:45.147Z,30.02
2019-03-23T03:20:16.344Z,30.27
2019-03-23T03:20:47.553Z,30.70
2019-03-23T03:21:18.752Z,30.08
2019-03-23T03:21:49.957Z,32.03
2019-03-23T03:22:21.162Z,31.57
2019-03-23T03:22:52.364Z,30.70
2019-03-23T03:23:23.599Z,31.50
2019-03-23T03:23:54.845Z,30.23
2019-03-23T03:24:26.087Z,32.25
2019-03-23T03:24:57.335Z,32.03
2019-03-23T03:25:28.546Z,32.67
2019-03-23T03:25:59.757Z,32.05
2019-03-23T03:26:30.976Z,31.77
2019-03-23T03:27:02.177Z,31.10
2019-03-23T03:27:33.393Z,31.05
2019-03-23T03:28:04.598Z,31.12
2019-03-23T03:28:35.847Z,31.75
2019-03-23T03:29:07.051Z,31.00
2019-03-23T03:29:38.270Z,29.65
2019-03-23T03:30:09.465Z,29.42
2019-03-23T03:30:40.670Z,31.05
2019-03-23T03:31:11.905Z,31.45
2019-03-23T03:31:43.139Z,30.92
2019-03-23T03:32:14.360Z,31.65
2019-03-23T03:32:45.843Z,30.65
2019-03-23T03:33:17.038Z,30.80
2019-03-23T03:33:48.290Z,30.37
2019-03-23T03:34:19.526Z,30.25
2019-03-23T03:34:50.755Z,32.38
2019-03-23T03:35:22.013Z,30.82
2019-03-23T03:35:53.204Z,32.13
2019-03-23T03:36:24.479Z,32.00
2019-03-23T03:36:55.662Z,31.70
2019-03-23T03:37:26.880Z,31.05
2019-03-23T03:37:58.100Z,30.52
2019-03-23T03:38:29.298Z,32.95
2019-03-23T03:39:00.563Z,31.25
2019-03-23T03:39:31.799Z,31.12
2019-03-23T03:40:03.038Z,30.72
2019-03-23T03:40:34.254Z,30.88
2019-03-23T03:41:05.473Z,31.82
2019-03-23T03:41:36.676Z,30.62
2019-03-23T03:42:07.919Z,31.15
2019-03-23T03:42:39.121Z,28.87
2019-03-23T03:43:10.352Z,30.12
2019-03-23T03:43:41.572Z,29.67
2019-03-23T03:44:12.770Z,29.55
2019-03-23T03:44:44.010Z,29.27
2019-03-23T03:45:15.214Z,27.42
2019-03-23T03:45:46.417Z,27.52
2019-03-23T03:46:17.642Z,28.47
2019-03-23T03:46:48.883Z,29.20
2019-03-23T03:47:20.140Z,28.95
2019-03-23T03:47:51.343Z,30.60
2019-03-23T03:48:22.555Z,30.27
2019-03-23T03:48:53.758Z,30.75
2019-03-23T03:49:24.974Z,30.45
2019-03-23T03:49:56.163Z,29.23
2019-03-23T03:50:27.417Z,28.77
2019-03-23T03:50:58.638Z,29.98
2019-03-23T03:51:29.843Z,29.55
2019-03-23T03:52:01.049Z,30.20
2019-03-23T03:52:32.262Z,28.10
2019-03-23T03:53:03.488Z,30.40
2019-03-23T03:53:34.742Z,28.52
2019-03-23T03:54:05.965Z,29.70
2019-03-23T03:54:37.167Z,29.85
2019-03-23T03:55:08.385Z,28.62
2019-03-23T03:55:39.587Z,29.95
2019-03-23T03:56:10.803Z,29.35
2019-03-23T03:56:42.016Z,29.57
2019-03-23T03:57:13.241Z,28.25
2019-03-23T03:57:44.478Z,29.52
2019-03-23T03:58:15.676Z,29.15
2019-03-23T03:58:47.061Z,28.25
2019-03-23T03:59:18.281Z,27.95
2019-03-23T03:59:50.460Z,28.67
2019-03-23T04:00:21.681Z,28.87
2019-03-23T04:00:52.889Z,30.35
2019-03-23T04:01:24.102Z,29.52
2019-03-23T04:01:55.313Z,28.98
2019-03-23T04:02:26.575Z,29.25
2019-03-23T04:02:57.786Z,28.95
2019-03-23T04:03:28.985Z,29.98
2019-03-23T04:04:00.196Z,29.92
2019-03-23T04:04:31.406Z,30.52
2019-03-23T04:05:02.605Z,28.92
2019-03-23T04:05:33.809Z,30.88
2019-03-23T04:06:05.007Z,28.87
2019-03-23T04:06:36.215Z,27.73
2019-03-23T04:07:07.419Z,29.20
2019-03-23T04:07:38.661Z,30.90
2019-03-23T04:08:11.941Z,30.77
2019-03-23T04:08:42.799Z,28.95
2019-03-23T04:09:14.001Z,29.60
2019-03-23T04:09:45.218Z,29.18
2019-03-23T04:10:16.441Z,28.95
2019-03-23T04:10:47.646Z,28.65
2019-03-23T04:11:18.885Z,26.68
2019-03-23T04:11:50.089Z,27.77
2019-03-23T04:12:21.305Z,27.67
2019-03-23T04:12:52.489Z,26.37
2019-03-23T04:13:23.708Z,28.12
2019-03-23T04:13:54.943Z,27.17
2019-03-23T04:14:26.157Z,25.70
2019-03-23T04:14:57.347Z,27.60
2019-03-23T04:15:28.554Z,28.73
2019-03-23T04:15:59.757Z,27.27
2019-03-23T04:16:30.999Z,26.68
2019-03-23T04:17:02.187Z,26.23
2019-03-23T04:17:33.406Z,26.93
2019-03-23T04:18:04.616Z,26.82
2019-03-23T04:18:35.881Z,26.17
2019-03-23T04:19:07.091Z,26.25
2019-03-23T04:19:38.296Z,27.13
2019-03-23T04:20:09.544Z,26.37
2019-03-23T04:20:40.787Z,25.48
2019-03-23T04:21:12.000Z,26.80
2019-03-23T04:21:43.199Z,25.97
2019-03-23T04:22:14.406Z,26.87
2019-03-23T04:22:45.640Z,27.02
2019-03-23T04:23:16.839Z,26.65
2019-03-23T04:23:48.055Z,26.68
2019-03-23T04:24:19.282Z,26.55
2019-03-23T04:24:50.462Z,25.17
2019-03-23T04:25:21.694Z,26.30
2019-03-23T04:25:52.932Z,26.55
2019-03-23T04:26:24.142Z,28.00
2019-03-23T04:26:55.387Z,27.15
2019-03-23T04:27:26.574Z,27.62
2019-03-23T04:27:57.791Z,27.58
2019-03-23T04:28:28.980Z,27.30
2019-03-23T04:29:00.202Z,26.55
2019-03-23T04:29:31.393Z,26.33
2019-03-23T04:30:02.597Z,26.87
2019-03-23T04:30:33.982Z,26.35
2019-03-23T04:31:05.227Z,26.17
2019-03-23T04:31:36.449Z,26.97
2019-03-23T04:32:07.653Z,25.55
2019-03-23T04:32:38.897Z,26.50
2019-03-23T04:33:10.108Z,26.82
2019-03-23T04:33:41.307Z,26.82
2019-03-23T04:34:12.513Z,27.35
2019-03-23T04:34:43.711Z,26.73
2019-03-23T04:35:14.927Z,27.40
2019-03-23T04:35:46.139Z,27.50
2019-03-23T04:36:17.341Z,27.35
2019-03-23T04:36:48.542Z,25.82
2019-03-23T04:37:19.756Z,26.05
2019-03-23T04:37:51.016Z,26.25
2019-03-23T04:38:23.310Z,26.77
2019-03-23T04:38:54.723Z,26.82
2019-03-23T04:39:25.929Z,26.90
2019-03-23T04:39:57.130Z,25.68
2019-03-23T04:40:28.328Z,25.92
2019-03-23T04:40:59.535Z,26.73
2019-03-23T04:41:30.801Z,25.55
2019-03-23T04:42:01.994Z,26.62
2019-03-23T04:42:33.222Z,26.05
2019-03-23T04:43:04.433Z,25.62
2019-03-23T04:43:35.687Z,26.00
2019-03-23T04:44:06.886Z,24.72
2019-03-23T04:44:38.097Z,25.50
2019-03-23T04:45:09.309Z,24.98
2019-03-23T04:45:40.587Z,26.12
2019-03-23T04:46:11.810Z,24.87
2019-03-23T04:46:43.983Z,24.50
2019-03-23T04:47:15.364Z,24.75
2019-03-23T04:47:47.059Z,25.45
2019-03-23T04:48:18.329Z,24.52
2019-03-23T04:48:49.602Z,25.75
2019-03-23T04:49:20.818Z,25.35
2019-03-23T04:49:52.043Z,26.20
2019-03-23T04:50:23.240Z,23.87
2019-03-23T04:50:54.445Z,24.37
2019-03-23T04:51:25.662Z,25.57
2019-03-23T04:51:56.861Z,24.20
2019-03-23T04:52:28.108Z,26.15
2019-03-23T04:52:59.320Z,30.60
2019-03-23T04:53:30.544Z,31.52
2019-03-23T04:54:01.747Z,23.87
2019-03-23T04:54:32.955Z,30.05
2019-03-23T04:55:04.170Z,27.30
2019-03-23T04:55:35.378Z,25.62
2019-03-23T04:56:06.572Z,24.55
2019-03-23T04:56:37.775Z,22.07
2019-03-23T04:57:09.991Z,23.80
2019-03-23T04:57:41.228Z,34.73
2019-03-23T04:58:12.437Z,22.22
2019-03-23T04:58:43.634Z,20.62
2019-03-23T04:59:14.843Z,22.90
2019-03-23T04:59:46.065Z,21.33
2019-03-23T05:00:17.278Z,23.42
2019-03-23T05:00:48.528Z,34.63
2019-03-23T05:01:19.739Z,26.95
2019-03-23T05:01:50.939Z,21.25
2019-03-23T05:02:22.237Z,20.95
2019-03-23T05:02:53.437Z,23.85
2019-03-23T05:03:24.653Z,25.92
2019-03-23T05:03:55.910Z,23.75
2019-03-23T05:04:27.104Z,22.22
2019-03-23T05:04:58.369Z,20.20
2019-03-23T05:05:29.569Z,19.57
2019-03-23T05:06:00.772Z,21.35
2019-03-23T05:06:32.031Z,20.65
2019-03-23T05:07:03.232Z,20.70
2019-03-23T05:07:34.471Z,21.17
2019-03-23T05:08:05.690Z,21.17
2019-03-23T05:08:36.912Z,20.50
2019-03-23T05:09:08.122Z,20.88
2019-03-23T05:09:39.323Z,21.07
2019-03-23T05:10:10.516Z,20.37
2019-03-23T05:10:41.722Z,19.27
2019-03-23T05:11:12.966Z,20.45
2019-03-23T05:11:44.169Z,19.65
2019-03-23T05:12:15.365Z,21.17
2019-03-23T05:12:46.570Z,21.12
2019-03-23T05:13:17.769Z,19.65
2019-03-23T05:13:49.010Z,19.45
2019-03-23T05:14:20.208Z,19.10
2019-03-23T05:14:51.450Z,20.57
2019-03-23T05:15:22.665Z,19.48
2019-03-23T05:15:53.854Z,19.75
2019-03-23T05:16:25.057Z,20.12
2019-03-23T05:16:56.261Z,20.45
2019-03-23T05:17:27.461Z,20.68
2019-03-23T05:17:58.670Z,19.70
2019-03-23T05:18:29.866Z,19.55
2019-03-23T05:19:01.119Z,20.00
2019-03-23T05:19:32.332Z,20.60
2019-03-23T05:20:03.529Z,19.85
2019-03-23T05:20:34.737Z,19.82
2019-03-23T05:21:06.096Z,20.62
2019-03-23T05:21:37.321Z,19.40
2019-03-23T05:22:08.539Z,19.67
2019-03-23T05:22:39.941Z,20.65
2019-03-23T05:23:11.149Z,20.08
2019-03-23T05:23:42.215Z,20.80
2019-03-23T05:24:13.437Z,20.68
2019-03-23T05:24:44.642Z,20.92
2019-03-23T05:25:15.870Z,28.07
2019-03-23T05:25:47.074Z,36.63
2019-03-23T05:26:18.270Z,32.58
2019-03-23T05:26:49.478Z,35.83
2019-03-23T05:27:20.675Z,26.25
2019-03-23T05:27:51.938Z,22.70
2019-03-23T05:28:23.150Z,22.82
2019-03-23T05:28:54.363Z,23.05
2019-03-23T05:29:25.574Z,22.40
2019-03-23T05:29:56.773Z,23.02
2019-03-23T05:30:27.991Z,23.85
2019-03-23T05:30:59.233Z,25.25
2019-03-23T05:31:30.434Z,22.48
2019-03-23T05:32:01.642Z,22.82
2019-03-23T05:32:32.860Z,23.65
2019-03-23T05:33:04.056Z,22.42
2019-03-23T05:33:35.273Z,24.37
2019-03-23T05:34:06.490Z,21.20
2019-03-23T05:34:37.692Z,21.15
2019-03-23T05:35:08.901Z,21.45
2019-03-23T05:35:40.111Z,22.00
2019-03-23T05:36:11.380Z,20.62
2019-03-23T05:36:42.584Z,21.52
2019-03-23T05:37:13.788Z,21.62
2019-03-23T05:37:44.986Z,20.80
2019-03-23T05:38:16.185Z,21.12
2019-03-23T05:38:47.391Z,21.17
2019-03-23T05:39:18.595Z,20.95
2019-03-23T05:39:49.802Z,22.35
2019-03-23T05:40:21.056Z,21.02
2019-03-23T05:40:52.268Z,21.70
2019-03-23T05:41:23.478Z,22.82
2019-03-23T05:41:54.670Z,20.97
2019-03-23T05:42:25.884Z,22.58
2019-03-23T05:42:57.128Z,23.20
2019-03-23T05:43:28.366Z,19.82
2019-03-23T05:43:59.589Z,20.70
2019-03-23T05:44:30.843Z,22.90
2019-03-23T05:45:02.046Z,21.37
2019-03-23T05:45:33.348Z,23.75
2019-03-23T05:46:04.529Z,23.07
2019-03-23T05:46:35.738Z,21.93
2019-03-23T05:47:06.936Z,20.88
2019-03-23T05:47:38.148Z,21.15
2019-03-23T05:48:09.383Z,21.37
2019-03-23T05:48:40.599Z,22.77
2019-03-23T05:49:11.880Z,24.67
2019-03-23T05:49:43.139Z,22.45
2019-03-23T05:50:14.346Z,23.55
2019-03-23T05:50:45.611Z,25.23
2019-03-23T05:51:16.809Z,25.48
2019-03-23T05:51:48.009Z,25.52
2019-03-23T05:52:19.221Z,25.20
2019-03-23T05:52:50.611Z,22.15
2019-03-23T05:53:21.831Z,22.32
2019-03-23T05:53:53.032Z,22.62
2019-03-23T05:54:24.244Z,22.65
2019-03-23T05:54:55.461Z,19.82
2019-03-23T05:55:26.707Z,21.95
2019-03-23T05:55:57.961Z,23.00
2019-03-23T05:56:29.168Z,19.98
2019-03-23T05:57:00.388Z,20.35
2019-03-23T05:57:31.625Z,20.62
2019-03-23T05:58:02.859Z,20.92
2019-03-23T05:58:34.094Z,20.60
2019-03-23T05:59:05.315Z,19.27
2019-03-23T05:59:36.520Z,19.10
2019-03-23T06:00:07.734Z,19.40
2019-03-23T06:00:38.938Z,18.98
2019-03-23T06:01:10.154Z,18.17
2019-03-23T06:01:41.416Z,20.60
2019-03-23T06:02:12.629Z,18.07
2019-03-23T06:02:43.847Z,18.40
2019-03-23T06:03:15.107Z,19.55
2019-03-23T06:03:46.372Z,20.80
2019-03-23T06:04:17.576Z,19.77
2019-03-23T06:04:48.771Z,22.98
2019-03-23T06:05:20.038Z,20.27
2019-03-23T06:05:51.257Z,20.92
2019-03-23T06:06:22.465Z,20.17
2019-03-23T06:06:53.682Z,21.33
2019-03-23T06:07:24.891Z,21.23
2019-03-23T06:07:56.100Z,20.82
2019-03-23T06:08:27.332Z,22.30
2019-03-23T06:08:58.581Z,19.75
2019-03-23T06:09:29.796Z,20.77
2019-03-23T06:10:01.010Z,22.45
2019-03-23T06:10:32.227Z,20.55
2019-03-23T06:11:03.457Z,21.02
2019-03-23T06:11:34.720Z,21.50
2019-03-23T06:12:05.932Z,22.50
2019-03-23T06:12:37.141Z,20.27
2019-03-23T06:13:08.353Z,21.55
2019-03-23T06:13:39.575Z,19.27
2019-03-23T06:14:10.806Z,20.12
2019-03-23T06:14:42.059Z,23.75
2019-03-23T06:15:13.280Z,23.98
2019-03-23T06:15:44.506Z,18.90
2019-03-23T06:16:17.841Z,20.17
2019-03-23T06:16:48.656Z,19.98
2019-03-23T06:17:19.865Z,19.23
2019-03-23T06:17:51.071Z,19.23
2019-03-23T06:18:22.303Z,20.82
2019-03-23T06:18:53.502Z,17.15
2019-03-23T06:19:24.743Z,16.95
2019-03-23T06:19:55.974Z,17.20
2019-03-23T06:20:27.184Z,16.87
2019-03-23T06:20:58.395Z,18.17
2019-03-23T06:21:29.607Z,18.27
2019-03-23T06:22:00.820Z,18.90
2019-03-23T06:22:32.030Z,18.35
2019-03-23T06:23:03.289Z,17.77
2019-03-23T06:23:34.499Z,17.82
2019-03-23T06:24:05.708Z,17.05
2019-03-23T06:24:36.930Z,17.55
2019-03-23T06:25:08.177Z,17.25
2019-03-23T06:25:39.390Z,17.98
2019-03-23T06:26:10.629Z,18.17
2019-03-23T06:26:41.818Z,18.55
2019-03-23T06:27:13.039Z,18.10
2019-03-23T06:27:44.472Z,17.98
2019-03-23T06:28:15.678Z,17.65
2019-03-23T06:28:46.892Z,16.52
2019-03-23T06:29:18.122Z,16.85
2019-03-23T06:29:49.328Z,16.40
2019-03-23T06:30:20.538Z,16.48
2019-03-23T06:30:51.743Z,17.25
2019-03-23T06:31:22.946Z,15.53
2019-03-23T06:31:54.156Z,16.70
2019-03-23T06:32:25.369Z,17.07
2019-03-23T06:32:56.631Z,17.32
2019-03-23T06:33:27.862Z,15.70
2019-03-23T06:33:59.068Z,16.30
2019-03-23T06:34:30.286Z,15.95
2019-03-23T06:35:01.539Z,15.18
2019-03-23T06:35:32.753Z,16.57
2019-03-23T06:36:04.017Z,15.50
2019-03-23T06:36:35.233Z,16.05
2019-03-23T06:37:06.444Z,16.05
2019-03-23T06:37:37.652Z,16.93
2019-03-23T06:38:08.856Z,16.05
2019-03-23T06:38:40.060Z,16.10
2019-03-23T06:39:11.263Z,16.17
2019-03-23T06:39:42.495Z,16.48
2019-03-23T06:40:13.690Z,15.95
2019-03-23T06:40:44.903Z,16.37
2019-03-23T06:41:16.116Z,16.75
2019-03-23T06:41:47.375Z,16.77
2019-03-23T06:42:18.599Z,15.72